sensor_id;sensor_type;location;lat;lon;timestamp;temperature;humidity
3202;DHT22;34843;48.744;8.958;2023-05-07T00:02:21;11.20;99.90
3202;DHT22;34843;48.744;8.958;2023-05-07T00:04:48;11.10;99.90
3202;DHT22;34843;48.744;8.958;2023-05-07T00:07:14;11.10;99.90
3202;DHT22;34843;48.744;8.958;2023-05-07T00:09:39;11.10;99.90
3202;DHT22;34843;48.744;8.958;2023-05-07T00:12:05;11.10;99.90
3202;DHT22;34843;48.744;8.958;2023-05-07T00:14:31;11.10;99.90
3202;DHT22;34843;48.744;8.958;2023-05-07T00:16:57;11.10;99.90
3202;DHT22;34843;48.744;8.958;2023-05-07T00:19:22;11.10;99.90
3202;DHT22;34843;48.744;8.958;2023-05-07T00:21:48;11.20;99.90
3202;DHT22;34843;48.744;8.958;2023-05-07T00:24:13;11.20;99.90
3202;DHT22;34843;48.744;8.958;2023-05-07T00:26:39;11.20;99.90
3202;DHT22;34843;48.744;8.958;2023-05-07T00:29:04;11.20;99.90
3202;DHT22;34843;48.744;8.958;2023-05-07T00:31:30;11.30;99.90
3202;DHT22;34843;48.744;8.958;2023-05-07T00:33:55;11.20;99.90
3202;DHT22;34843;48.744;8.958;2023-05-07T00:36:21;11.20;99.90
3202;DHT22;34843;48.744;8.958;2023-05-07T00:38:46;11.20;99.90
3202;DHT22;34843;48.744;8.958;2023-05-07T00:41:12;11.10;99.90
3202;DHT22;34843;48.744;8.958;2023-05-07T00:43:37;11.10;99.90
3202;DHT22;34843;48.744;8.958;2023-05-07T00:46:03;11.10;99.90
3202;DHT22;34843;48.744;8.958;2023-05-07T00:48:29;11.10;99.90
3202;DHT22;34843;48.744;8.958;2023-05-07T00:50:55;11.10;99.90
3202;DHT22;34843;48.744;8.958;2023-05-07T00:53:21;11.00;99.90
3202;DHT22;34843;48.744;8.958;2023-05-07T00:55:47;10.90;99.90
3202;DHT22;34843;48.744;8.958;2023-05-07T00:58:13;10.80;99.90
3202;DHT22;34843;48.744;8.958;2023-05-07T01:00:38;10.90;99.90
3202;DHT22;34843;48.744;8.958;2023-05-07T01:03:05;10.80;99.90
3202;DHT22;34843;48.744;8.958;2023-05-07T01:05:30;10.80;99.90
3202;DHT22;34843;48.744;8.958;2023-05-07T01:07:56;10.80;99.90
3202;DHT22;34843;48.744;8.958;2023-05-07T01:10:23;10.80;99.90
3202;DHT22;34843;48.744;8.958;2023-05-07T01:12:50;10.80;99.90
3202;DHT22;34843;48.744;8.958;2023-05-07T01:15:16;10.90;99.90
3202;DHT22;34843;48.744;8.958;2023-05-07T01:17:43;10.90;99.90
3202;DHT22;34843;48.744;8.958;2023-05-07T01:20:09;10.90;99.90
3202;DHT22;34843;48.744;8.958;2023-05-07T01:22:39;10.80;99.90
3202;DHT22;34843;48.744;8.958;2023-05-07T01:25:06;10.80;99.90
3202;DHT22;34843;48.744;8.958;2023-05-07T01:27:32;10.80;99.90
3202;DHT22;34843;48.744;8.958;2023-05-07T01:30:03;10.80;99.90
3202;DHT22;34843;48.744;8.958;2023-05-07T01:32:47;10.80;99.90
3202;DHT22;34843;48.744;8.958;2023-05-07T01:35:21;10.80;99.90
3202;DHT22;34843;48.744;8.958;2023-05-07T01:37:48;10.80;99.90
3202;DHT22;34843;48.744;8.958;2023-05-07T01:40:14;10.80;99.90
3202;DHT22;34843;48.744;8.958;2023-05-07T01:42:42;10.80;99.90
3202;DHT22;34843;48.744;8.958;2023-05-07T01:45:08;10.90;99.90
3202;DHT22;34843;48.744;8.958;2023-05-07T01:47:34;11.00;99.90
3202;DHT22;34843;48.744;8.958;2023-05-07T01:50:01;11.00;99.90
3202;DHT22;34843;48.744;8.958;2023-05-07T01:52:27;11.00;99.90
3202;DHT22;34843;48.744;8.958;2023-05-07T01:54:53;11.00;99.90
3202;DHT22;34843;48.744;8.958;2023-05-07T01:57:19;11.00;99.90
3202;DHT22;34843;48.744;8.958;2023-05-07T01:59:44;11.00;99.90
3202;DHT22;34843;48.744;8.958;2023-05-07T02:02:10;11.10;99.90
3202;DHT22;34843;48.744;8.958;2023-05-07T02:04:36;11.00;99.90
3202;DHT22;34843;48.744;8.958;2023-05-07T02:07:02;11.10;99.90
3202;DHT22;34843;48.744;8.958;2023-05-07T02:09:27;11.10;99.90
3202;DHT22;34843;48.744;8.958;2023-05-07T02:11:53;11.10;99.90
3202;DHT22;34843;48.744;8.958;2023-05-07T02:14:18;11.10;99.90
3202;DHT22;34843;48.744;8.958;2023-05-07T02:16:45;11.10;99.90
3202;DHT22;34843;48.744;8.958;2023-05-07T02:19:11;11.00;99.90
3202;DHT22;34843;48.744;8.958;2023-05-07T02:21:36;11.00;99.90
3202;DHT22;34843;48.744;8.958;2023-05-07T02:24:02;11.00;99.90
3202;DHT22;34843;48.744;8.958;2023-05-07T02:26:27;11.00;99.90
3202;DHT22;34843;48.744;8.958;2023-05-07T02:28:53;10.90;99.90
3202;DHT22;34843;48.744;8.958;2023-05-07T02:31:19;10.80;99.90
3202;DHT22;34843;48.744;8.958;2023-05-07T02:33:44;10.80;99.90
3202;DHT22;34843;48.744;8.958;2023-05-07T02:36:11;10.70;99.90
3202;DHT22;34843;48.744;8.958;2023-05-07T02:38:37;10.60;99.90
3202;DHT22;34843;48.744;8.958;2023-05-07T02:41:03;10.50;99.90
3202;DHT22;34843;48.744;8.958;2023-05-07T02:43:29;10.50;99.90
3202;DHT22;34843;48.744;8.958;2023-05-07T02:46:06;10.50;99.90
3202;DHT22;34843;48.744;8.958;2023-05-07T02:48:32;10.40;99.90
3202;DHT22;34843;48.744;8.958;2023-05-07T02:50:58;10.40;99.90
3202;DHT22;34843;48.744;8.958;2023-05-07T02:53:24;10.30;99.90
3202;DHT22;34843;48.744;8.958;2023-05-07T02:55:54;10.30;99.90
3202;DHT22;34843;48.744;8.958;2023-05-07T02:58:19;10.20;99.90
3202;DHT22;34843;48.744;8.958;2023-05-07T03:00:45;10.20;99.90
3202;DHT22;34843;48.744;8.958;2023-05-07T03:03:10;10.20;99.90
3202;DHT22;34843;48.744;8.958;2023-05-07T03:05:36;10.20;99.90
3202;DHT22;34843;48.744;8.958;2023-05-07T03:08:02;10.20;99.90
3202;DHT22;34843;48.744;8.958;2023-05-07T03:10:29;10.10;99.90
3202;DHT22;34843;48.744;8.958;2023-05-07T03:12:54;10.10;99.90
3202;DHT22;34843;48.744;8.958;2023-05-07T03:15:20;10.00;99.90
3202;DHT22;34843;48.744;8.958;2023-05-07T03:17:47;9.90;99.90
3202;DHT22;34843;48.744;8.958;2023-05-07T03:20:13;9.90;99.90
3202;DHT22;34843;48.744;8.958;2023-05-07T03:22:38;9.80;99.90
3202;DHT22;34843;48.744;8.958;2023-05-07T03:25:04;9.90;99.90
3202;DHT22;34843;48.744;8.958;2023-05-07T03:27:30;9.90;99.90
3202;DHT22;34843;48.744;8.958;2023-05-07T03:29:55;9.80;99.90
3202;DHT22;34843;48.744;8.958;2023-05-07T03:32:21;9.80;99.90
3202;DHT22;34843;48.744;8.958;2023-05-07T03:34:46;9.80;99.90
3202;DHT22;34843;48.744;8.958;2023-05-07T03:37:12;9.70;99.90
3202;DHT22;34843;48.744;8.958;2023-05-07T03:39:37;9.70;99.90
3202;DHT22;34843;48.744;8.958;2023-05-07T03:42:03;9.60;99.90
3202;DHT22;34843;48.744;8.958;2023-05-07T03:44:28;9.60;99.90
3202;DHT22;34843;48.744;8.958;2023-05-07T03:46:54;9.60;99.90
3202;DHT22;34843;48.744;8.958;2023-05-07T03:49:20;9.60;99.90
3202;DHT22;34843;48.744;8.958;2023-05-07T03:51:46;9.60;99.90
3202;DHT22;34843;48.744;8.958;2023-05-07T03:54:11;9.50;99.90
3202;DHT22;34843;48.744;8.958;2023-05-07T03:56:37;9.50;99.90
3202;DHT22;34843;48.744;8.958;2023-05-07T03:59:02;9.60;99.90
3202;DHT22;34843;48.744;8.958;2023-05-07T04:01:28;9.60;99.90
3202;DHT22;34843;48.744;8.958;2023-05-07T04:03:54;9.60;99.90
3202;DHT22;34843;48.744;8.958;2023-05-07T04:06:19;9.60;99.90
3202;DHT22;34843;48.744;8.958;2023-05-07T04:08:45;9.60;99.90
3202;DHT22;34843;48.744;8.958;2023-05-07T04:11:10;9.60;99.90
3202;DHT22;34843;48.744;8.958;2023-05-07T04:13:36;9.60;99.90
3202;DHT22;34843;48.744;8.958;2023-05-07T04:16:03;9.60;99.90
3202;DHT22;34843;48.744;8.958;2023-05-07T04:18:29;9.70;99.90
3202;DHT22;34843;48.744;8.958;2023-05-07T04:20:54;9.80;99.90
3202;DHT22;34843;48.744;8.958;2023-05-07T04:23:20;9.80;99.90
3202;DHT22;34843;48.744;8.958;2023-05-07T04:25:46;9.70;99.90
3202;DHT22;34843;48.744;8.958;2023-05-07T04:28:12;9.80;99.90
3202;DHT22;34843;48.744;8.958;2023-05-07T04:30:38;9.90;99.90
3202;DHT22;34843;48.744;8.958;2023-05-07T04:33:04;9.90;99.90
3202;DHT22;34843;48.744;8.958;2023-05-07T04:35:29;10.00;99.90
3202;DHT22;34843;48.744;8.958;2023-05-07T04:37:55;10.10;99.90
3202;DHT22;34843;48.744;8.958;2023-05-07T04:40:20;10.50;99.90
3202;DHT22;34843;48.744;8.958;2023-05-07T04:42:46;11.20;99.90
3202;DHT22;34843;48.744;8.958;2023-05-07T04:45:11;11.90;99.90
3202;DHT22;34843;48.744;8.958;2023-05-07T04:47:38;12.20;99.90
3202;DHT22;34843;48.744;8.958;2023-05-07T04:50:04;12.20;99.90
3202;DHT22;34843;48.744;8.958;2023-05-07T04:52:30;12.00;99.90
3202;DHT22;34843;48.744;8.958;2023-05-07T04:54:58;11.80;99.90
3202;DHT22;34843;48.744;8.958;2023-05-07T04:57:24;11.70;99.90
3202;DHT22;34843;48.744;8.958;2023-05-07T04:59:49;11.70;99.90
3202;DHT22;34843;48.744;8.958;2023-05-07T05:02:15;11.60;99.90
3202;DHT22;34843;48.744;8.958;2023-05-07T05:04:41;11.70;99.90
3202;DHT22;34843;48.744;8.958;2023-05-07T05:07:06;11.80;99.90
3202;DHT22;34843;48.744;8.958;2023-05-07T05:09:32;12.00;99.90
3202;DHT22;34843;48.744;8.958;2023-05-07T05:11:58;12.20;99.90
3202;DHT22;34843;48.744;8.958;2023-05-07T05:14:24;12.60;99.90
3202;DHT22;34843;48.744;8.958;2023-05-07T05:16:49;13.30;99.90
3202;DHT22;34843;48.744;8.958;2023-05-07T05:19:15;14.40;99.90
3202;DHT22;34843;48.744;8.958;2023-05-07T05:21:41;15.60;99.90
3202;DHT22;34843;48.744;8.958;2023-05-07T05:24:07;17.60;99.90
3202;DHT22;34843;48.744;8.958;2023-05-07T05:26:32;19.30;99.90
3202;DHT22;34843;48.744;8.958;2023-05-07T05:28:58;20.60;99.90
3202;DHT22;34843;48.744;8.958;2023-05-07T05:31:23;22.10;99.90
3202;DHT22;34843;48.744;8.958;2023-05-07T05:33:49;22.40;99.90
3202;DHT22;34843;48.744;8.958;2023-05-07T05:36:15;23.00;99.90
3202;DHT22;34843;48.744;8.958;2023-05-07T05:38:40;23.50;99.90
3202;DHT22;34843;48.744;8.958;2023-05-07T05:41:06;23.10;99.90
3202;DHT22;34843;48.744;8.958;2023-05-07T05:43:31;22.40;99.90
3202;DHT22;34843;48.744;8.958;2023-05-07T05:45:57;21.40;99.90
3202;DHT22;34843;48.744;8.958;2023-05-07T05:48:23;20.80;99.90
3202;DHT22;34843;48.744;8.958;2023-05-07T05:50:48;20.40;99.90
3202;DHT22;34843;48.744;8.958;2023-05-07T05:53:14;20.70;99.90
3202;DHT22;34843;48.744;8.958;2023-05-07T05:55:41;21.60;99.90
3202;DHT22;34843;48.744;8.958;2023-05-07T05:58:07;22.30;99.90
3202;DHT22;34843;48.744;8.958;2023-05-07T06:00:32;22.30;99.90
3202;DHT22;34843;48.744;8.958;2023-05-07T06:02:58;23.30;99.90
3202;DHT22;34843;48.744;8.958;2023-05-07T06:07:57;26.20;99.90
3202;DHT22;34843;48.744;8.958;2023-05-07T06:10:22;27.50;99.90
3202;DHT22;34843;48.744;8.958;2023-05-07T06:12:49;27.60;99.90
3202;DHT22;34843;48.744;8.958;2023-05-07T06:15:14;26.70;99.90
3202;DHT22;34843;48.744;8.958;2023-05-07T06:17:40;26.80;99.90
3202;DHT22;34843;48.744;8.958;2023-05-07T06:20:06;26.80;99.90
3202;DHT22;34843;48.744;8.958;2023-05-07T06:22:32;26.00;99.90
3202;DHT22;34843;48.744;8.958;2023-05-07T06:24:57;25.00;99.90
3202;DHT22;34843;48.744;8.958;2023-05-07T06:27:23;24.00;99.90
3202;DHT22;34843;48.744;8.958;2023-05-07T06:29:48;22.80;99.90
3202;DHT22;34843;48.744;8.958;2023-05-07T06:32:14;21.50;99.90
3202;DHT22;34843;48.744;8.958;2023-05-07T06:34:40;20.40;99.90
3202;DHT22;34843;48.744;8.958;2023-05-07T06:37:06;19.80;99.90
3202;DHT22;34843;48.744;8.958;2023-05-07T06:39:32;21.20;99.90
3202;DHT22;34843;48.744;8.958;2023-05-07T06:41:59;23.50;99.90
3202;DHT22;34843;48.744;8.958;2023-05-07T06:44:25;25.30;99.90
3202;DHT22;34843;48.744;8.958;2023-05-07T06:46:50;27.40;99.90
3202;DHT22;34843;48.744;8.958;2023-05-07T06:49:16;29.10;99.90
3202;DHT22;34843;48.744;8.958;2023-05-07T06:51:41;30.20;99.90
3202;DHT22;34843;48.744;8.958;2023-05-07T06:54:07;31.10;99.90
3202;DHT22;34843;48.744;8.958;2023-05-07T06:56:33;30.70;99.90
3202;DHT22;34843;48.744;8.958;2023-05-07T06:59:00;29.80;99.90
3202;DHT22;34843;48.744;8.958;2023-05-07T07:01:25;30.00;99.90
3202;DHT22;34843;48.744;8.958;2023-05-07T07:03:51;31.00;99.90
3202;DHT22;34843;48.744;8.958;2023-05-07T07:06:17;31.40;99.90
3202;DHT22;34843;48.744;8.958;2023-05-07T07:08:42;31.50;99.90
3202;DHT22;34843;48.744;8.958;2023-05-07T07:11:09;31.70;99.90
3202;DHT22;34843;48.744;8.958;2023-05-07T07:13:35;32.20;99.90
3202;DHT22;34843;48.744;8.958;2023-05-07T07:16:01;33.10;99.90
3202;DHT22;34843;48.744;8.958;2023-05-07T07:18:26;33.00;99.90
3202;DHT22;34843;48.744;8.958;2023-05-07T07:20:52;33.00;99.90
3202;DHT22;34843;48.744;8.958;2023-05-07T07:23:17;32.70;99.90
3202;DHT22;34843;48.744;8.958;2023-05-07T07:25:43;32.80;99.90
3202;DHT22;34843;48.744;8.958;2023-05-07T07:28:08;31.80;99.90
3202;DHT22;34843;48.744;8.958;2023-05-07T07:30:34;32.00;99.80
3202;DHT22;34843;48.744;8.958;2023-05-07T07:32:59;32.10;99.90
3202;DHT22;34843;48.744;8.958;2023-05-07T07:35:28;30.60;99.20
3202;DHT22;34843;48.744;8.958;2023-05-07T07:37:54;30.50;99.60
3202;DHT22;34843;48.744;8.958;2023-05-07T07:40:20;30.00;99.90
3202;DHT22;34843;48.744;8.958;2023-05-07T07:42:45;29.90;99.90
3202;DHT22;34843;48.744;8.958;2023-05-07T07:45:11;28.60;99.90
3202;DHT22;34843;48.744;8.958;2023-05-07T07:47:37;27.50;99.90
3202;DHT22;34843;48.744;8.958;2023-05-07T07:50:03;27.30;99.90
3202;DHT22;34843;48.744;8.958;2023-05-07T07:52:29;27.00;99.90
3202;DHT22;34843;48.744;8.958;2023-05-07T07:54:54;26.70;99.90
3202;DHT22;34843;48.744;8.958;2023-05-07T07:57:20;26.60;99.90
3202;DHT22;34843;48.744;8.958;2023-05-07T07:59:46;26.70;99.90
3202;DHT22;34843;48.744;8.958;2023-05-07T08:02:11;26.70;99.90
3202;DHT22;34843;48.744;8.958;2023-05-07T08:04:37;28.00;99.90
3202;DHT22;34843;48.744;8.958;2023-05-07T08:07:03;28.70;99.90
3202;DHT22;34843;48.744;8.958;2023-05-07T08:09:28;28.70;99.90
3202;DHT22;34843;48.744;8.958;2023-05-07T08:11:54;28.10;99.90
3202;DHT22;34843;48.744;8.958;2023-05-07T08:14:20;27.90;99.90
3202;DHT22;34843;48.744;8.958;2023-05-07T08:16:45;26.80;99.90
3202;DHT22;34843;48.744;8.958;2023-05-07T08:19:11;25.30;99.90
3202;DHT22;34843;48.744;8.958;2023-05-07T08:21:39;24.70;99.90
3202;DHT22;34843;48.744;8.958;2023-05-07T08:24:05;24.00;99.90
3202;DHT22;34843;48.744;8.958;2023-05-07T08:26:31;24.00;99.90
3202;DHT22;34843;48.744;8.958;2023-05-07T08:28:56;23.20;99.90
3202;DHT22;34843;48.744;8.958;2023-05-07T08:31:22;22.80;99.90
3202;DHT22;34843;48.744;8.958;2023-05-07T08:33:47;22.70;99.90
3202;DHT22;34843;48.744;8.958;2023-05-07T08:36:13;22.80;99.90
3202;DHT22;34843;48.744;8.958;2023-05-07T08:38:38;22.40;99.90
3202;DHT22;34843;48.744;8.958;2023-05-07T08:41:06;22.50;99.90
3202;DHT22;34843;48.744;8.958;2023-05-07T08:43:33;23.00;99.90
3202;DHT22;34843;48.744;8.958;2023-05-07T08:46:01;23.40;99.90
3202;DHT22;34843;48.744;8.958;2023-05-07T08:48:29;23.70;99.90
3202;DHT22;34843;48.744;8.958;2023-05-07T08:50:55;23.80;99.90
3202;DHT22;34843;48.744;8.958;2023-05-07T08:53:21;23.90;99.90
3202;DHT22;34843;48.744;8.958;2023-05-07T08:55:47;24.10;99.90
3202;DHT22;34843;48.744;8.958;2023-05-07T08:58:13;24.40;99.90
3202;DHT22;34843;48.744;8.958;2023-05-07T09:00:40;24.70;99.90
3202;DHT22;34843;48.744;8.958;2023-05-07T09:03:07;24.80;99.90
3202;DHT22;34843;48.744;8.958;2023-05-07T09:05:32;25.00;99.90
3202;DHT22;34843;48.744;8.958;2023-05-07T09:08:06;25.00;99.90
3202;DHT22;34843;48.744;8.958;2023-05-07T09:10:33;25.00;99.90
3202;DHT22;34843;48.744;8.958;2023-05-07T09:12:59;24.50;99.90
3202;DHT22;34843;48.744;8.958;2023-05-07T09:15:26;24.10;99.90
3202;DHT22;34843;48.744;8.958;2023-05-07T09:17:52;24.10;99.90
3202;DHT22;34843;48.744;8.958;2023-05-07T09:20:17;24.30;99.90
3202;DHT22;34843;48.744;8.958;2023-05-07T09:22:43;24.40;99.90
3202;DHT22;34843;48.744;8.958;2023-05-07T09:25:09;24.60;99.90
3202;DHT22;34843;48.744;8.958;2023-05-07T09:27:35;24.80;99.90
3202;DHT22;34843;48.744;8.958;2023-05-07T09:30:07;24.90;99.90
3202;DHT22;34843;48.744;8.958;2023-05-07T09:32:36;24.60;99.90
3202;DHT22;34843;48.744;8.958;2023-05-07T09:35:03;24.40;99.90
3202;DHT22;34843;48.744;8.958;2023-05-07T09:37:31;24.00;99.90
3202;DHT22;34843;48.744;8.958;2023-05-07T09:39:56;23.80;99.90
3202;DHT22;34843;48.744;8.958;2023-05-07T09:42:23;23.70;99.90
3202;DHT22;34843;48.744;8.958;2023-05-07T09:44:50;23.60;99.90
3202;DHT22;34843;48.744;8.958;2023-05-07T09:47:20;23.80;99.90
3202;DHT22;34843;48.744;8.958;2023-05-07T09:49:50;23.90;99.90
3202;DHT22;34843;48.744;8.958;2023-05-07T09:52:18;23.90;99.90
3202;DHT22;34843;48.744;8.958;2023-05-07T09:54:45;23.90;99.90
3202;DHT22;34843;48.744;8.958;2023-05-07T09:57:13;24.10;99.90
3202;DHT22;34843;48.744;8.958;2023-05-07T09:59:42;24.20;99.90
3202;DHT22;34843;48.744;8.958;2023-05-07T10:02:09;24.50;99.90
3202;DHT22;34843;48.744;8.958;2023-05-07T10:04:35;24.70;99.90
3202;DHT22;34843;48.744;8.958;2023-05-07T10:07:03;24.80;99.90
3202;DHT22;34843;48.744;8.958;2023-05-07T10:09:30;24.90;99.90
3202;DHT22;34843;48.744;8.958;2023-05-07T10:11:56;24.80;99.90
3202;DHT22;34843;48.744;8.958;2023-05-07T10:14:22;25.20;99.90
3202;DHT22;34843;48.744;8.958;2023-05-07T10:16:48;25.50;99.90
3202;DHT22;34843;48.744;8.958;2023-05-07T10:19:14;25.90;99.90
3202;DHT22;34843;48.744;8.958;2023-05-07T10:21:45;25.90;99.90
3202;DHT22;34843;48.744;8.958;2023-05-07T10:24:20;25.90;99.90
3202;DHT22;34843;48.744;8.958;2023-05-07T10:26:49;25.50;99.90
3202;DHT22;34843;48.744;8.958;2023-05-07T10:34:43;25.80;99.90
3202;DHT22;34843;48.744;8.958;2023-05-07T10:37:11;25.70;99.90
3202;DHT22;34843;48.744;8.958;2023-05-07T10:39:37;26.20;99.90
3202;DHT22;34843;48.744;8.958;2023-05-07T10:42:13;27.00;99.90
3202;DHT22;34843;48.744;8.958;2023-05-07T10:44:39;27.70;99.90
3202;DHT22;34843;48.744;8.958;2023-05-07T10:47:09;28.10;99.90
3202;DHT22;34843;48.744;8.958;2023-05-07T10:49:37;28.30;99.90
3202;DHT22;34843;48.744;8.958;2023-05-07T10:52:15;27.90;99.90
3202;DHT22;34843;48.744;8.958;2023-05-07T10:54:42;27.90;99.90
3202;DHT22;34843;48.744;8.958;2023-05-07T10:59:58;26.70;99.90
3202;DHT22;34843;48.744;8.958;2023-05-07T11:05:26;26.90;99.90
3202;DHT22;34843;48.744;8.958;2023-05-07T11:07:55;26.50;99.90
3202;DHT22;34843;48.744;8.958;2023-05-07T11:10:21;25.80;99.90
3202;DHT22;34843;48.744;8.958;2023-05-07T11:12:51;25.30;99.90
3202;DHT22;34843;48.744;8.958;2023-05-07T11:15:46;24.90;99.90
3202;DHT22;34843;48.744;8.958;2023-05-07T11:18:14;24.60;99.90
3202;DHT22;34843;48.744;8.958;2023-05-07T11:20:49;24.30;99.90
3202;DHT22;34843;48.744;8.958;2023-05-07T11:28:30;23.70;99.90
3202;DHT22;34843;48.744;8.958;2023-05-07T11:30:57;23.40;99.90
3202;DHT22;34843;48.744;8.958;2023-05-07T11:33:23;23.10;99.90
3202;DHT22;34843;48.744;8.958;2023-05-07T11:35:55;22.80;99.90
3202;DHT22;34843;48.744;8.958;2023-05-07T11:38:21;22.50;99.90
3202;DHT22;34843;48.744;8.958;2023-05-07T11:40:54;22.30;99.90
3202;DHT22;34843;48.744;8.958;2023-05-07T11:43:20;22.00;99.90
3202;DHT22;34843;48.744;8.958;2023-05-07T11:45:46;21.80;99.90
3202;DHT22;34843;48.744;8.958;2023-05-07T11:48:15;21.70;99.90
3202;DHT22;34843;48.744;8.958;2023-05-07T11:50:51;21.10;99.90
3202;DHT22;34843;48.744;8.958;2023-05-07T11:53:18;20.00;99.90
3202;DHT22;34843;48.744;8.958;2023-05-07T11:55:45;19.30;99.90
3202;DHT22;34843;48.744;8.958;2023-05-07T11:58:12;18.70;99.90
3202;DHT22;34843;48.744;8.958;2023-05-07T12:00:52;18.40;99.90
3202;DHT22;34843;48.744;8.958;2023-05-07T12:03:18;18.30;99.90
3202;DHT22;34843;48.744;8.958;2023-05-07T12:05:47;18.30;99.90
3202;DHT22;34843;48.744;8.958;2023-05-07T12:08:17;18.10;99.90
3202;DHT22;34843;48.744;8.958;2023-05-07T12:10:43;17.60;99.90
3202;DHT22;34843;48.744;8.958;2023-05-07T12:13:23;17.50;99.90
3202;DHT22;34843;48.744;8.958;2023-05-07T12:15:53;17.30;99.90
3202;DHT22;34843;48.744;8.958;2023-05-07T12:18:19;17.20;99.90
3202;DHT22;34843;48.744;8.958;2023-05-07T12:20:46;17.10;99.90
3202;DHT22;34843;48.744;8.958;2023-05-07T12:23:12;17.00;99.90
3202;DHT22;34843;48.744;8.958;2023-05-07T12:25:39;16.40;99.90
3202;DHT22;34843;48.744;8.958;2023-05-07T12:28:06;16.30;99.90
3202;DHT22;34843;48.744;8.958;2023-05-07T12:30:40;16.00;99.90
3202;DHT22;34843;48.744;8.958;2023-05-07T12:33:07;15.20;99.90
3202;DHT22;34843;48.744;8.958;2023-05-07T12:35:37;14.90;99.90
3202;DHT22;34843;48.744;8.958;2023-05-07T12:38:08;14.90;99.90
3202;DHT22;34843;48.744;8.958;2023-05-07T12:40:42;14.80;99.90
3202;DHT22;34843;48.744;8.958;2023-05-07T12:43:14;14.80;99.90
3202;DHT22;34843;48.744;8.958;2023-05-07T12:45:41;14.80;99.90
3202;DHT22;34843;48.744;8.958;2023-05-07T12:48:10;14.70;99.90
3202;DHT22;34843;48.744;8.958;2023-05-07T12:50:36;14.70;99.90
3202;DHT22;34843;48.744;8.958;2023-05-07T12:53:04;14.60;99.90
3202;DHT22;34843;48.744;8.958;2023-05-07T12:55:41;14.70;99.90
3202;DHT22;34843;48.744;8.958;2023-05-07T12:58:07;14.70;99.90
3202;DHT22;34843;48.744;8.958;2023-05-07T13:00:35;14.80;99.90
3202;DHT22;34843;48.744;8.958;2023-05-07T13:03:00;14.90;99.90
3202;DHT22;34843;48.744;8.958;2023-05-07T13:05:26;15.10;99.90
3202;DHT22;34843;48.744;8.958;2023-05-07T13:07:55;15.20;99.90
3202;DHT22;34843;48.744;8.958;2023-05-07T13:10:22;15.40;99.90
3202;DHT22;34843;48.744;8.958;2023-05-07T13:12:48;15.50;99.90
3202;DHT22;34843;48.744;8.958;2023-05-07T13:15:14;15.60;99.90
3202;DHT22;34843;48.744;8.958;2023-05-07T13:17:39;15.80;99.90
3202;DHT22;34843;48.744;8.958;2023-05-07T13:20:05;15.90;99.90
3202;DHT22;34843;48.744;8.958;2023-05-07T13:22:32;16.10;99.90
3202;DHT22;34843;48.744;8.958;2023-05-07T13:24:57;16.30;99.90
3202;DHT22;34843;48.744;8.958;2023-05-07T13:27:22;16.30;99.90
3202;DHT22;34843;48.744;8.958;2023-05-07T13:29:48;16.40;99.90
3202;DHT22;34843;48.744;8.958;2023-05-07T13:32:14;16.50;99.90
3202;DHT22;34843;48.744;8.958;2023-05-07T13:34:39;16.60;99.90
3202;DHT22;34843;48.744;8.958;2023-05-07T13:37:05;16.60;99.90
3202;DHT22;34843;48.744;8.958;2023-05-07T13:39:30;16.70;99.90
3202;DHT22;34843;48.744;8.958;2023-05-07T13:41:56;16.80;99.90
3202;DHT22;34843;48.744;8.958;2023-05-07T13:44:21;16.90;99.90
3202;DHT22;34843;48.744;8.958;2023-05-07T13:46:47;16.90;99.90
3202;DHT22;34843;48.744;8.958;2023-05-07T13:49:12;17.10;99.90
3202;DHT22;34843;48.744;8.958;2023-05-07T13:51:38;17.10;99.90
3202;DHT22;34843;48.744;8.958;2023-05-07T13:54:03;17.20;99.90
3202;DHT22;34843;48.744;8.958;2023-05-07T13:56:29;17.30;99.90
3202;DHT22;34843;48.744;8.958;2023-05-07T13:58:57;17.40;99.90
3202;DHT22;34843;48.744;8.958;2023-05-07T14:01:23;17.50;99.90
3202;DHT22;34843;48.744;8.958;2023-05-07T14:03:50;17.40;99.90
3202;DHT22;34843;48.744;8.958;2023-05-07T14:06:15;17.30;99.90
3202;DHT22;34843;48.744;8.958;2023-05-07T14:08:41;17.40;99.90
3202;DHT22;34843;48.744;8.958;2023-05-07T14:11:06;17.90;99.90
3202;DHT22;34843;48.744;8.958;2023-05-07T14:13:32;17.20;99.90
3202;DHT22;34843;48.744;8.958;2023-05-07T14:15:59;17.20;99.90
3202;DHT22;34843;48.744;8.958;2023-05-07T14:18:26;17.10;99.90
3202;DHT22;34843;48.744;8.958;2023-05-07T14:20:51;17.10;99.90
3202;DHT22;34843;48.744;8.958;2023-05-07T14:23:17;17.10;99.90
3202;DHT22;34843;48.744;8.958;2023-05-07T14:25:44;17.10;99.90
3202;DHT22;34843;48.744;8.958;2023-05-07T14:28:11;16.90;99.90
3202;DHT22;34843;48.744;8.958;2023-05-07T14:30:37;16.80;99.90
3202;DHT22;34843;48.744;8.958;2023-05-07T14:33:02;16.70;99.90
3202;DHT22;34843;48.744;8.958;2023-05-07T14:35:28;16.60;99.90
3202;DHT22;34843;48.744;8.958;2023-05-07T14:37:53;16.30;99.90
3202;DHT22;34843;48.744;8.958;2023-05-07T14:40:19;16.50;99.90
3202;DHT22;34843;48.744;8.958;2023-05-07T14:42:44;16.50;99.90
3202;DHT22;34843;48.744;8.958;2023-05-07T14:45:10;16.60;99.90
3202;DHT22;34843;48.744;8.958;2023-05-07T14:47:36;16.60;99.90
3202;DHT22;34843;48.744;8.958;2023-05-07T14:50:01;16.50;99.90
3202;DHT22;34843;48.744;8.958;2023-05-07T14:52:27;16.30;99.90
3202;DHT22;34843;48.744;8.958;2023-05-07T14:54:53;16.10;99.90
3202;DHT22;34843;48.744;8.958;2023-05-07T14:57:18;16.00;99.90
3202;DHT22;34843;48.744;8.958;2023-05-07T14:59:45;15.90;99.90
3202;DHT22;34843;48.744;8.958;2023-05-07T15:02:12;16.10;99.90
3202;DHT22;34843;48.744;8.958;2023-05-07T15:04:38;16.10;99.90
3202;DHT22;34843;48.744;8.958;2023-05-07T15:07:13;16.10;99.90
3202;DHT22;34843;48.744;8.958;2023-05-07T15:09:41;16.20;99.90
3202;DHT22;34843;48.744;8.958;2023-05-07T15:12:07;16.20;99.90
3202;DHT22;34843;48.744;8.958;2023-05-07T15:14:33;16.20;99.90
3202;DHT22;34843;48.744;8.958;2023-05-07T15:16:58;16.30;99.90
3202;DHT22;34843;48.744;8.958;2023-05-07T15:19:24;16.20;99.90
3202;DHT22;34843;48.744;8.958;2023-05-07T15:21:57;16.20;99.90
3202;DHT22;34843;48.744;8.958;2023-05-07T15:24:23;16.30;99.90
3202;DHT22;34843;48.744;8.958;2023-05-07T15:26:49;16.40;99.90
3202;DHT22;34843;48.744;8.958;2023-05-07T15:29:15;16.50;99.90
3202;DHT22;34843;48.744;8.958;2023-05-07T15:31:40;16.50;99.90
3202;DHT22;34843;48.744;8.958;2023-05-07T15:34:06;16.70;99.90
3202;DHT22;34843;48.744;8.958;2023-05-07T15:36:31;16.90;99.90
3202;DHT22;34843;48.744;8.958;2023-05-07T15:38:57;17.00;99.90
3202;DHT22;34843;48.744;8.958;2023-05-07T15:41:24;17.10;99.90
3202;DHT22;34843;48.744;8.958;2023-05-07T15:43:51;17.20;99.90
3202;DHT22;34843;48.744;8.958;2023-05-07T15:46:19;17.20;99.90
3202;DHT22;34843;48.744;8.958;2023-05-07T15:48:45;17.20;99.90
3202;DHT22;34843;48.744;8.958;2023-05-07T15:51:11;17.20;99.90
3202;DHT22;34843;48.744;8.958;2023-05-07T15:53:37;17.30;99.90
3202;DHT22;34843;48.744;8.958;2023-05-07T15:56:03;17.40;99.90
3202;DHT22;34843;48.744;8.958;2023-05-07T15:58:28;17.60;99.90
3202;DHT22;34843;48.744;8.958;2023-05-07T16:00:54;17.80;99.90
3202;DHT22;34843;48.744;8.958;2023-05-07T16:03:20;18.00;99.90